createdAt,value
2023-05-16T00:00:42.983Z,15.50
2023-05-16T00:03:11.348Z,15.40
2023-05-16T00:05:39.139Z,15.30
2023-05-16T00:08:07.806Z,15.20
2023-05-16T00:10:34.973Z,15.10
2023-05-16T00:13:02.143Z,14.90
2023-05-16T00:15:33.464Z,14.80
2023-05-16T00:18:00.383Z,14.80
2023-05-16T00:20:28.446Z,14.70
2023-05-16T00:22:55.757Z,14.60
2023-05-16T00:25:23.635Z,14.60
2023-05-16T00:27:50.531Z,14.50
2023-05-16T00:30:17.561Z,14.50
2023-05-16T00:32:44.522Z,14.40
2023-05-16T00:35:12.521Z,14.30
2023-05-16T00:37:40.102Z,14.30
2023-05-16T00:40:07.698Z,14.20
2023-05-16T00:42:34.664Z,14.10
2023-05-16T00:45:01.665Z,14.10
2023-05-16T00:47:28.605Z,14.00
2023-05-16T00:49:55.626Z,13.90
2023-05-16T00:52:22.795Z,13.90
2023-05-16T00:54:51.121Z,13.80
2023-05-16T00:57:19.768Z,13.80
2023-05-16T00:59:47.582Z,13.80
2023-05-16T01:02:14.842Z,13.80
2023-05-16T01:04:43.410Z,13.80
2023-05-16T01:07:10.691Z,13.80
2023-05-16T01:09:37.906Z,13.70
2023-05-16T01:12:54.245Z,13.70
2023-05-16T01:15:33.090Z,13.60
2023-05-16T01:18:12.704Z,13.60
2023-05-16T01:21:10.283Z,13.50
2023-05-16T01:23:50.087Z,13.50
2023-05-16T01:26:22.774Z,13.50
2023-05-16T01:28:51.837Z,13.50
2023-05-16T01:31:19.822Z,13.40
2023-05-16T01:33:47.617Z,13.40
2023-05-16T01:36:24.437Z,13.40
2023-05-16T01:39:01.478Z,13.40
2023-05-16T01:41:53.034Z,13.40
2023-05-16T01:44:31.694Z,13.40
2023-05-16T01:47:02.653Z,13.40
2023-05-16T01:49:32.460Z,13.50
2023-05-16T01:52:11.691Z,13.40
2023-05-16T01:54:41.089Z,13.50
2023-05-16T01:57:09.535Z,13.40
2023-05-16T01:59:38.361Z,13.40
2023-05-16T02:02:05.657Z,13.40
2023-05-16T02:04:32.590Z,13.40
2023-05-16T02:07:01.164Z,13.40
2023-05-16T02:09:28.308Z,13.40
2023-05-16T02:11:55.249Z,13.40
2023-05-16T02:14:22.224Z,13.40
2023-05-16T02:16:49.131Z,13.30
2023-05-16T02:19:16.216Z,13.30
2023-05-16T02:21:43.305Z,13.30
2023-05-16T02:24:10.188Z,13.20
2023-05-16T02:26:37.145Z,13.20
2023-05-16T02:29:04.133Z,13.20
2023-05-16T02:31:32.716Z,13.20
2023-05-16T02:34:00.102Z,13.20
2023-05-16T02:36:27.234Z,13.20
2023-05-16T02:38:54.262Z,13.10
2023-05-16T02:41:22.415Z,13.30
2023-05-16T02:43:49.798Z,13.20
2023-05-16T02:46:31.359Z,13.20
2023-05-16T02:48:58.864Z,13.30
2023-05-16T02:51:28.024Z,13.20
2023-05-16T02:53:57.300Z,13.20
2023-05-16T02:56:24.411Z,13.10
2023-05-16T02:58:51.412Z,13.10
2023-05-16T03:01:18.688Z,13.10
2023-05-16T03:03:45.894Z,13.10
2023-05-16T03:06:13.019Z,13.10
2023-05-16T03:08:39.912Z,13.10
2023-05-16T03:11:06.795Z,13.10
2023-05-16T03:13:34.078Z,13.10
2023-05-16T03:16:01.594Z,13.00
2023-05-16T03:18:28.763Z,13.10
2023-05-16T03:20:56.324Z,13.10
2023-05-16T03:23:23.441Z,13.10
2023-05-16T03:25:50.476Z,13.10
2023-05-16T03:28:18.444Z,13.10
2023-05-16T03:30:45.551Z,13.10
2023-05-16T03:33:12.556Z,13.20
2023-05-16T03:35:40.134Z,13.20
2023-05-16T03:38:07.145Z,13.10
2023-05-16T03:40:34.280Z,13.10
2023-05-16T03:43:01.190Z,13.10
2023-05-16T03:45:28.337Z,13.10
2023-05-16T03:47:55.770Z,13.10
2023-05-16T03:50:22.835Z,13.30
2023-05-16T03:52:49.738Z,13.20
2023-05-16T03:55:16.711Z,13.20
2023-05-16T03:57:43.900Z,13.20
2023-05-16T04:00:12.749Z,13.20
2023-05-16T04:02:41.113Z,13.20
2023-05-16T04:05:09.510Z,13.30
2023-05-16T04:07:37.526Z,13.30
2023-05-16T04:10:05.619Z,13.30
2023-05-16T04:12:34.157Z,13.30
2023-05-16T04:15:01.145Z,13.30
2023-05-16T04:17:28.091Z,13.30
2023-05-16T04:19:54.959Z,13.40
2023-05-16T04:22:23.041Z,13.40
2023-05-16T04:24:50.434Z,13.40
2023-05-16T04:27:17.937Z,13.50
2023-05-16T04:29:44.992Z,13.50
2023-05-16T04:32:12.570Z,13.60
2023-05-16T04:34:40.484Z,13.50
2023-05-16T04:37:08.679Z,13.60
2023-05-16T04:39:36.778Z,13.60
2023-05-16T04:42:04.579Z,13.60
2023-05-16T04:44:32.318Z,13.60
2023-05-16T04:46:59.768Z,13.70
2023-05-16T04:49:26.708Z,13.80
2023-05-16T04:51:53.627Z,13.80
2023-05-16T04:54:20.853Z,13.80
2023-05-16T04:56:47.722Z,14.00
2023-05-16T04:59:15.274Z,14.00
2023-05-16T05:01:42.292Z,14.10
2023-05-16T05:04:09.254Z,14.10
2023-05-16T05:06:36.202Z,14.20
2023-05-16T05:09:03.169Z,14.20
2023-05-16T05:11:30.088Z,14.20
2023-05-16T05:13:56.971Z,14.30
2023-05-16T05:16:23.996Z,14.20
2023-05-16T05:18:51.109Z,14.20
2023-05-16T05:21:19.795Z,14.30
2023-05-16T05:23:47.194Z,14.40
2023-05-16T05:26:14.361Z,14.40
2023-05-16T05:28:47.773Z,14.40
2023-05-16T05:31:17.872Z,14.60
2023-05-16T05:33:44.856Z,14.60
2023-05-16T05:36:12.483Z,14.80
2023-05-16T05:38:39.422Z,14.70
2023-05-16T05:41:07.201Z,14.80
2023-05-16T05:43:34.617Z,14.90
2023-05-16T05:46:01.639Z,15.10
2023-05-16T05:48:30.077Z,15.30
2023-05-16T05:50:57.133Z,15.40
2023-05-16T05:53:24.066Z,15.40
2023-05-16T05:55:51.022Z,15.30
2023-05-16T05:58:18.363Z,15.30
2023-05-16T06:00:45.322Z,15.20
2023-05-16T06:03:12.334Z,15.20
2023-05-16T06:05:39.353Z,15.10
2023-05-16T06:08:06.285Z,15.10
2023-05-16T06:10:33.303Z,15.00
2023-05-16T06:13:00.166Z,15.00
2023-05-16T06:15:27.431Z,15.10
2023-05-16T06:17:54.574Z,15.10
2023-05-16T06:20:21.532Z,15.10
2023-05-16T06:22:48.586Z,15.00
2023-05-16T06:25:15.563Z,15.00
2023-05-16T06:27:42.461Z,15.00
2023-05-16T06:30:09.681Z,15.00
2023-05-16T06:32:36.617Z,15.00
2023-05-16T06:35:04.123Z,14.90
2023-05-16T06:37:31.379Z,14.80
2023-05-16T06:39:59.292Z,14.70
2023-05-16T06:42:26.235Z,14.70
2023-05-16T06:44:53.201Z,14.70
2023-05-16T06:47:20.564Z,14.70
2023-05-16T06:49:47.866Z,14.60
2023-05-16T06:52:14.843Z,14.60
2023-05-16T06:54:44.329Z,14.60
2023-05-16T06:57:11.295Z,14.50
2023-05-16T06:59:38.253Z,14.60
2023-05-16T07:02:05.595Z,14.50
2023-05-16T07:04:33.049Z,14.60
2023-05-16T07:07:00.018Z,14.60
2023-05-16T07:09:27.021Z,14.60
2023-05-16T07:11:54.013Z,14.60
2023-05-16T07:14:21.138Z,14.50
2023-05-16T07:16:48.115Z,14.70
2023-05-16T07:19:15.179Z,14.60
2023-05-16T07:21:42.318Z,14.70
2023-05-16T07:24:09.308Z,14.70
2023-05-16T07:26:36.345Z,14.70
2023-05-16T07:29:04.535Z,14.60
2023-05-16T07:31:31.588Z,14.60
2023-05-16T07:33:58.556Z,14.50
2023-05-16T07:36:25.665Z,14.50
2023-05-16T07:38:52.622Z,14.50
2023-05-16T07:41:19.550Z,14.50
2023-05-16T07:43:46.621Z,14.50
2023-05-16T07:46:14.506Z,14.40
2023-05-16T07:48:41.496Z,14.40
2023-05-16T07:51:08.544Z,14.40
2023-05-16T07:53:35.461Z,14.40
2023-05-16T07:56:02.516Z,14.40
2023-05-16T07:58:29.725Z,14.30
2023-05-16T08:00:56.762Z,14.30
2023-05-16T08:03:23.964Z,14.30
2023-05-16T08:05:51.960Z,14.40
2023-05-16T08:08:19.356Z,14.30
2023-05-16T08:10:46.466Z,14.30
2023-05-16T08:13:13.573Z,14.30
2023-05-16T08:15:40.809Z,14.20
2023-05-16T08:18:16.427Z,14.20
2023-05-16T08:20:44.082Z,14.20
2023-05-16T08:23:13.732Z,14.20
2023-05-16T08:25:40.749Z,14.20
2023-05-16T08:28:07.687Z,14.20
2023-05-16T08:30:34.980Z,14.30
2023-05-16T08:33:05.109Z,14.30
2023-05-16T08:35:34.520Z,14.30
2023-05-16T08:38:03.445Z,14.30
2023-05-16T08:40:31.648Z,14.30
2023-05-16T08:42:58.679Z,14.50
2023-05-16T08:45:26.530Z,14.80
2023-05-16T08:47:57.249Z,14.80
2023-05-16T08:50:25.456Z,14.70
2023-05-16T08:52:54.230Z,14.70
2023-05-16T08:55:24.208Z,14.70
2023-05-16T08:57:54.473Z,14.70
2023-05-16T09:00:22.861Z,14.80
2023-05-16T09:02:50.503Z,14.90
2023-05-16T09:05:18.446Z,14.90
2023-05-16T09:07:46.037Z,15.10
2023-05-16T09:10:13.906Z,15.10
2023-05-16T09:12:42.162Z,15.00
2023-05-16T09:15:11.302Z,15.20
2023-05-16T09:17:43.800Z,15.50
2023-05-16T09:20:14.122Z,15.50
2023-05-16T09:22:49.881Z,15.60
2023-05-16T09:25:30.065Z,15.60
2023-05-16T09:28:01.693Z,15.50
2023-05-16T09:30:32.558Z,15.30
2023-05-16T09:33:00.083Z,15.30
2023-05-16T09:35:43.054Z,15.20
2023-05-16T09:38:16.361Z,15.10
2023-05-16T09:40:43.547Z,15.10
2023-05-16T09:43:10.612Z,15.10
2023-05-16T09:45:37.563Z,15.00
2023-05-16T09:48:07.021Z,15.10
2023-05-16T09:50:37.854Z,15.20
2023-05-16T09:53:05.648Z,15.30
2023-05-16T09:55:33.084Z,15.30
2023-05-16T09:58:00.107Z,15.40
2023-05-16T10:00:31.879Z,15.30
2023-05-16T10:03:03.489Z,15.30
2023-05-16T10:05:32.484Z,15.40
2023-05-16T10:07:59.917Z,15.40
2023-05-16T10:10:28.674Z,15.40
2023-05-16T10:12:58.989Z,15.30
2023-05-16T10:15:26.884Z,15.10
2023-05-16T10:18:00.267Z,15.00
2023-05-16T10:20:27.691Z,14.90
2023-05-16T10:22:56.996Z,14.90
2023-05-16T10:25:27.339Z,14.80
2023-05-16T10:27:55.316Z,14.80
2023-05-16T10:30:22.737Z,14.90
2023-05-16T10:32:52.132Z,14.90
2023-05-16T10:35:20.245Z,15.00
2023-05-16T10:37:48.634Z,14.90
2023-05-16T10:40:19.948Z,14.90
2023-05-16T10:43:00.822Z,14.90
2023-05-16T10:45:28.470Z,15.00
2023-05-16T10:47:57.362Z,15.00
2023-05-16T10:50:38.206Z,15.00
2023-05-16T10:53:31.912Z,14.90
2023-05-16T10:56:01.971Z,14.80
2023-05-16T10:58:32.445Z,14.70
2023-05-16T11:01:21.502Z,14.50
2023-05-16T11:04:00.613Z,14.50
2023-05-16T11:06:40.787Z,14.50
2023-05-16T11:09:11.823Z,14.50
2023-05-16T11:11:53.906Z,14.40
2023-05-16T11:14:21.560Z,14.40
2023-05-16T11:16:53.821Z,14.40
2023-05-16T11:19:32.372Z,14.50
2023-05-16T11:22:26.899Z,14.70
2023-05-16T11:25:08.359Z,14.80
2023-05-16T11:27:38.382Z,14.70
2023-05-16T11:30:05.327Z,14.70
2023-05-16T11:32:37.837Z,14.60
2023-05-16T11:35:07.447Z,14.60
2023-05-16T11:37:34.755Z,14.50
2023-05-16T11:40:10.062Z,14.50
2023-05-16T11:42:39.784Z,14.50
2023-05-16T11:45:14.822Z,14.50
2023-05-16T11:47:44.768Z,14.50
2023-05-16T11:50:14.370Z,14.60
2023-05-16T11:52:44.911Z,14.60
2023-05-16T11:55:12.609Z,14.60
2023-05-16T11:57:42.313Z,14.80
2023-05-16T12:00:20.114Z,14.80
2023-05-16T12:02:50.227Z,14.80
2023-05-16T12:05:19.113Z,14.90
2023-05-16T12:07:47.197Z,14.90
2023-05-16T12:10:15.803Z,15.00
2023-05-16T12:12:48.343Z,15.00
2023-05-16T12:15:18.013Z,15.00
2023-05-16T12:17:46.291Z,15.10
2023-05-16T12:20:17.394Z,15.20
2023-05-16T12:22:45.934Z,15.40
2023-05-16T12:25:21.683Z,15.70
2023-05-16T12:27:48.604Z,16.00
2023-05-16T12:30:18.961Z,16.20
2023-05-16T12:32:46.252Z,16.20
2023-05-16T12:35:13.417Z,15.90
2023-05-16T12:37:43.589Z,15.70
2023-05-16T12:40:12.719Z,15.50
2023-05-16T12:42:39.639Z,15.40
2023-05-16T12:45:16.215Z,15.40
2023-05-16T12:47:43.793Z,15.50
2023-05-16T12:50:13.087Z,15.80
2023-05-16T12:52:51.039Z,16.20
2023-05-16T12:55:22.261Z,16.60
2023-05-16T12:57:49.925Z,16.70
2023-05-16T13:00:21.961Z,16.80
2023-05-16T13:02:51.385Z,17.00
2023-05-16T13:05:22.187Z,17.30
2023-05-16T13:07:51.758Z,17.30
2023-05-16T13:10:19.300Z,17.30
2023-05-16T13:12:47.513Z,17.40
2023-05-16T13:15:15.284Z,17.50
2023-05-16T13:17:47.760Z,17.60
2023-05-16T13:20:15.253Z,17.30
2023-05-16T13:22:43.748Z,17.20
2023-05-16T13:25:11.445Z,17.10
2023-05-16T13:27:38.592Z,17.20
2023-05-16T13:30:06.180Z,16.90
2023-05-16T13:32:33.341Z,16.80
2023-05-16T13:35:00.769Z,16.70
2023-05-16T13:37:27.802Z,16.80
2023-05-16T13:39:56.063Z,16.90
2023-05-16T13:42:23.124Z,17.00
2023-05-16T13:44:50.396Z,17.20
2023-05-16T13:47:17.405Z,17.30
2023-05-16T13:49:44.641Z,17.30
2023-05-16T13:52:11.753Z,17.10
2023-05-16T13:54:40.553Z,17.10
2023-05-16T13:57:10.714Z,16.90
2023-05-16T14:00:10.770Z,16.90
2023-05-16T14:02:26.400Z,16.90
2023-05-16T14:04:53.852Z,16.90
2023-05-16T14:07:20.868Z,16.90
2023-05-16T14:09:47.908Z,16.80
2023-05-16T14:12:15.124Z,16.70
2023-05-16T14:14:42.074Z,16.70
2023-05-16T14:17:09.180Z,16.70
2023-05-16T14:19:36.583Z,16.70
2023-05-16T14:22:03.697Z,16.70
2023-05-16T14:24:30.823Z,16.70
2023-05-16T14:26:58.008Z,16.70
2023-05-16T14:29:26.704Z,16.60
2023-05-16T14:31:54.385Z,16.50
2023-05-16T14:34:22.508Z,16.50
2023-05-16T14:36:50.959Z,16.40
2023-05-16T14:39:17.998Z,16.40
2023-05-16T14:41:45.045Z,16.40
2023-05-16T14:44:12.004Z,16.40
2023-05-16T14:46:39.061Z,16.40
2023-05-16T14:49:06.210Z,16.40
2023-05-16T14:51:33.280Z,16.40
2023-05-16T14:54:00.687Z,16.40
2023-05-16T14:56:28.227Z,16.50
2023-05-16T14:58:55.299Z,16.60
2023-05-16T15:01:22.699Z,16.60
2023-05-16T15:03:55.515Z,16.60
2023-05-16T15:06:24.600Z,16.70
2023-05-16T15:08:51.998Z,16.80
2023-05-16T15:11:18.982Z,16.70
2023-05-16T15:13:46.430Z,16.60
2023-05-16T15:16:13.405Z,16.40
2023-05-16T15:18:41.879Z,16.00
2023-05-16T15:21:09.260Z,15.50
2023-05-16T15:23:36.840Z,14.90
2023-05-16T15:26:04.497Z,14.50
2023-05-16T15:28:31.471Z,14.30
2023-05-16T15:30:58.432Z,14.20
2023-05-16T15:33:26.627Z,14.00
2023-05-16T15:35:53.732Z,13.90
2023-05-16T15:38:20.803Z,13.80
2023-05-16T15:40:50.792Z,13.70
2023-05-16T15:43:25.064Z,13.70
2023-05-16T15:45:52.123Z,13.80
2023-05-16T15:48:19.130Z,13.80
2023-05-16T15:50:46.132Z,13.90
2023-05-16T15:53:13.048Z,14.00
2023-05-16T15:55:39.984Z,14.00
2023-05-16T15:58:07.097Z,14.10
2023-05-16T16:00:34.185Z,14.20
2023-05-16T16:03:01.581Z,14.30
2023-05-16T16:05:28.738Z,14.30
2023-05-16T16:07:55.903Z,14.40
2023-05-16T16:10:23.044Z,14.40
2023-05-16T16:13:03.847Z,14.40
2023-05-16T16:15:33.699Z,14.40
2023-05-16T16:18:01.320Z,14.50
2023-05-16T16:20:28.542Z,14.50
2023-05-16T16:22:55.553Z,14.40
2023-05-16T16:25:22.862Z,14.40
2023-05-16T16:27:50.153Z,14.40
2023-05-16T16:30:17.551Z,14.50
2023-05-16T16:32:48.686Z,14.50
2023-05-16T16:35:15.904Z,14.40
2023-05-16T16:37:46.636Z,14.50
2023-05-16T16:40:21.999Z,14.50
2023-05-16T16:42:48.975Z,14.50
2023-05-16T16:45:15.915Z,14.50
2023-05-16T16:47:43.193Z,14.50
2023-05-16T16:50:10.992Z,14.40
2023-05-16T16:52:37.985Z,14.40
2023-05-16T16:55:06.350Z,14.30
2023-05-16T16:57:34.653Z,14.30
2023-05-16T17:00:01.935Z,14.30
2023-05-16T17:02:29.039Z,14.10
2023-05-16T17:04:56.039Z,14.10
2023-05-16T17:07:23.342Z,14.10
2023-05-16T17:09:50.349Z,14.10
2023-05-16T17:12:22.141Z,14.00
2023-05-16T17:14:50.746Z,14.00
2023-05-16T17:17:18.846Z,14.00
2023-05-16T17:19:47.106Z,14.10
2023-05-16T17:22:14.695Z,14.10
2023-05-16T17:24:41.744Z,14.10
2023-05-16T17:27:09.472Z,14.10
2023-05-16T17:29:37.498Z,14.10
2023-05-16T17:34:33.603Z,14.20
2023-05-16T17:37:02.052Z,14.30
2023-05-16T17:39:29.262Z,14.30
2023-05-16T17:41:57.513Z,14.30
2023-05-16T17:44:24.569Z,14.30
2023-05-16T17:46:52.297Z,14.30
2023-05-16T17:49:19.323Z,14.30
2023-05-16T17:51:47.496Z,14.30
2023-05-16T17:54:16.101Z,14.30
2023-05-16T17:56:43.856Z,14.30
2023-05-16T17:59:10.918Z,14.30
2023-05-16T18:01:40.889Z,14.30
2023-05-16T18:04:08.689Z,14.30
2023-05-16T18:06:40.347Z,14.20
2023-05-16T18:09:09.952Z,14.20
2023-05-16T18:11:39.584Z,14.20
2023-05-16T18:14:09.345Z,14.20
2023-05-16T18:16:36.826Z,14.20
2023-05-16T18:19:05.157Z,14.20
2023-05-16T18:21:32.496Z,14.20
2023-05-16T18:23:59.668Z,14.20
2023-05-16T18:26:28.896Z,14.20
2023-05-16T18:28:56.333Z,14.20
2023-05-16T18:31:23.393Z,14.10
2023-05-16T18:33:50.432Z,14.10
2023-05-16T18:36:17.431Z,14.10
2023-05-16T18:38:45.890Z,14.00
2023-05-16T18:41:12.951Z,13.90
2023-05-16T18:43:39.926Z,14.00
2023-05-16T18:46:06.848Z,14.00
2023-05-16T18:48:35.891Z,14.00
2023-05-16T18:51:03.277Z,13.90
2023-05-16T18:53:30.240Z,13.90
2023-05-16T18:55:57.276Z,13.90
2023-05-16T18:58:24.336Z,13.80
2023-05-16T19:00:51.600Z,13.80
2023-05-16T19:03:18.879Z,13.80
2023-05-16T19:05:46.259Z,13.80
2023-05-16T19:08:13.245Z,13.70
2023-05-16T19:10:41.816Z,13.70
2023-05-16T19:13:11.581Z,13.60
2023-05-16T19:15:38.624Z,13.60
2023-05-16T19:18:06.648Z,13.50
2023-05-16T19:20:34.913Z,13.40
2023-05-16T19:23:03.507Z,13.40
2023-05-16T19:25:30.681Z,13.30
2023-05-16T19:27:57.627Z,13.20
2023-05-16T19:30:25.043Z,13.20
2023-05-16T19:32:52.025Z,13.20
2023-05-16T19:35:19.728Z,13.10
2023-05-16T19:37:46.720Z,13.10
2023-05-16T19:40:16.347Z,13.10
2023-05-16T19:42:44.216Z,13.10
2023-05-16T19:45:11.442Z,13.10
2023-05-16T19:47:38.562Z,13.10
2023-05-16T19:50:06.939Z,13.10
2023-05-16T19:52:34.053Z,13.10
2023-05-16T19:55:00.998Z,13.10
2023-05-16T19:57:28.437Z,13.10
2023-05-16T19:59:55.395Z,13.10
2023-05-16T20:02:24.391Z,13.10
2023-05-16T20:04:51.981Z,13.00
2023-05-16T20:07:19.014Z,13.00
2023-05-16T20:09:45.990Z,13.00
2023-05-16T20:12:13.045Z,13.00
2023-05-16T20:14:40.064Z,13.00
2023-05-16T20:17:07.473Z,13.00
2023-05-16T20:19:35.546Z,13.00
2023-05-16T20:22:02.875Z,12.90
2023-05-16T20:24:29.865Z,12.90
2023-05-16T20:26:57.996Z,12.80
2023-05-16T20:29:24.942Z,12.80
2023-05-16T20:31:52.105Z,12.80
2023-05-16T20:34:19.018Z,12.80
2023-05-16T20:36:45.910Z,12.80
2023-05-16T20:39:12.847Z,12.80
2023-05-16T20:41:39.792Z,12.70
2023-05-16T20:44:06.905Z,12.70
2023-05-16T20:46:33.954Z,12.70
2023-05-16T20:49:01.049Z,12.60
2023-05-16T20:51:28.081Z,12.60
2023-05-16T20:53:55.060Z,12.60
2023-05-16T20:56:22.428Z,12.60
2023-05-16T20:58:49.366Z,12.60
2023-05-16T21:01:16.446Z,12.60
2023-05-16T21:03:43.491Z,12.60
2023-05-16T21:06:10.528Z,12.60
2023-05-16T21:08:37.635Z,12.60
2023-05-16T21:11:04.567Z,12.50
2023-05-16T21:13:31.597Z,12.50
2023-05-16T21:15:58.542Z,12.50
2023-05-16T21:18:25.523Z,12.50
2023-05-16T21:20:52.517Z,12.50
2023-05-16T21:23:19.810Z,12.50
2023-05-16T21:25:46.768Z,12.50
2023-05-16T21:28:13.743Z,12.50
2023-05-16T21:30:40.740Z,12.50
2023-05-16T21:33:07.751Z,12.50
2023-05-16T21:35:34.810Z,12.50
2023-05-16T21:38:01.925Z,12.40
2023-05-16T21:40:29.450Z,12.50
2023-05-16T21:42:56.346Z,12.50
2023-05-16T21:45:23.659Z,12.50
2023-05-16T21:47:50.713Z,12.50
2023-05-16T21:50:18.402Z,12.50
2023-05-16T21:52:45.615Z,12.50
2023-05-16T21:55:12.765Z,12.50
2023-05-16T21:57:39.810Z,12.50
2023-05-16T22:00:09.601Z,12.50
2023-05-16T22:02:37.280Z,12.50
2023-05-16T22:05:05.091Z,12.50
2023-05-16T22:07:32.305Z,12.50
2023-05-16T22:09:59.842Z,12.50
2023-05-16T22:12:27.974Z,12.50
2023-05-16T22:14:55.138Z,12.50
2023-05-16T22:17:22.108Z,12.50
2023-05-16T22:19:49.296Z,12.40
2023-05-16T22:22:16.450Z,12.50
2023-05-16T22:24:43.422Z,12.40
2023-05-16T22:27:10.339Z,12.40
2023-05-16T22:29:40.231Z,12.40
2023-05-16T22:32:08.114Z,12.40
2023-05-16T22:34:41.737Z,12.40
2023-05-16T22:37:09.868Z,12.40
2023-05-16T22:39:36.913Z,12.40
2023-05-16T22:42:04.463Z,12.40
2023-05-16T22:44:31.425Z,12.40
2023-05-16T22:46:58.361Z,12.40
2023-05-16T22:49:25.484Z,12.40
2023-05-16T22:51:52.388Z,12.40
2023-05-16T22:54:19.327Z,12.40
2023-05-16T22:56:46.268Z,12.40
2023-05-16T22:59:13.198Z,12.40
2023-05-16T23:01:40.143Z,12.40
2023-05-16T23:04:07.216Z,12.30
2023-05-16T23:06:34.362Z,12.30
2023-05-16T23:09:02.490Z,12.30
2023-05-16T23:11:29.500Z,12.30
2023-05-16T23:13:56.845Z,12.30
2023-05-16T23:16:23.835Z,12.30
2023-05-16T23:18:50.881Z,12.30
2023-05-16T23:21:18.006Z,12.30
2023-05-16T23:23:44.966Z,12.30
2023-05-16T23:26:11.947Z,12.30
2023-05-16T23:28:39.400Z,12.30
2023-05-16T23:31:06.585Z,12.30
2023-05-16T23:33:33.831Z,12.30
2023-05-16T23:36:00.818Z,12.30
2023-05-16T23:38:27.956Z,12.20
2023-05-16T23:40:54.961Z,12.20
2023-05-16T23:43:21.971Z,12.30
2023-05-16T23:45:48.984Z,12.20
2023-05-16T23:48:16.159Z,12.20
2023-05-16T23:50:43.207Z,12.20
2023-05-16T23:53:10.141Z,12.20
2023-05-16T23:55:37.140Z,12.20
2023-05-16T23:58:04.087Z,12.10
